x

Buoy B01 - Western Maine Shelf (44030) Wave Buoy

12:04 - Mon 8th Feb 2016 All times are EST. -5 hours from GMT.

  • Sig Wave height 6.6ft
  • Peak Period 5s
  • Wind
    27mph, 34mph gusts
  • Sea Temp 43°f
  • Ar Temp 36°f
  • Sea Pressure 1018.4mb
  • Buoy B01 - Western Maine Shelf
  • Buoy B01 - Western Maine Shelf

More Historic Weather Station data

Upgrade to MSW Pro to gain access to the past 30 days of data for over 8000 Wavebouys and Weather Stations around the globe.

Join Pro

Comparision Forecast

View Surf forecast
   
Seg 02/08 12:04 6.5ft 5s 27 34 mph 1018.4mb 43f 36f
Dom 02/07 11:04 4.5ft 5s 27 34 mph 1018.5mb 43f 37f
10:04 3.5ft 4s 20 25 mph 1018.9mb 43f 40f
9:04 3.5ft 11s 18 22 mph 1019.5mb 43f 40f
8:04 2ft 3s 16 20 mph 1020mb 43f 40f
7:04 2.5ft 11s 16 18 mph 1019.9mb 43f 40f
6:04 2ft 11s 11
mph
1020.5mb 43f 40f
5:04 1.6ft 11s 9
mph
1020.2mb 43f 40f
4:04 1.6ft 11s 7 9 mph 1020.2mb 43f 41f
3:04 1.6ft 11s 4 7 mph 1020.5mb 43f 42f
2:04 1.6ft 11s 11 16 mph 1019.5mb 43f 41f
1:04 1.3ft 4s 7 9 mph 1020mb 43f 41f
12:04 1.3ft 4s 11 13 mph 1020mb 43f 40f
11:04 1.6ft 4s 11 13 mph 1020.5mb 43f 38f
10:04 2ft 4s 11 16 mph 1020.4mb 43f 36f
9:04 2.5ft 4s 13 16 mph 1020mb 43f 36f
8:04 2.5ft 5s 16 18 mph 1019.7mb 42f 34f
7:04 2.5ft 5s 18 22 mph 1019.9mb 42f 34f
6:04 3ft 5s 20 25 mph 1019.6mb 42f 33f
5:04 3ft 5s 20 22 mph 1019.5mb 43f 35f
4:04 3ft 5s 20 22 mph 1019.5mb 43f 35f
3:04 3.5ft 5s 18 22 mph 1019.7mb 43f 34f
2:04 3.5ft 5s 20 22 mph 1020.4mb 43f 34f
1:04 3.5ft 5s 20 25 mph 1020.7mb 43f 35f
12:04 3.5ft 5s 22 27 mph 1021.5mb 43f 36f
Sáb 02/06 11:04 3.5ft 5s 22 25 mph 1022.1mb 43f 35f
10:04 4ft 5s 22 25 mph 1022.3mb 43f 35f
9:04 4ft 5s 22 25 mph 1022.9mb 43f 35f
8:04 4.5ft 5s 25 29 mph 1022.9mb 43f 36f
7:04 4.5ft 5s 25 29 mph 1023.2mb 43f 37f
6:04 5ft 5s 25 27 mph 1023.1mb 43f 37f
5:04 4ft 5s 25 29 mph 1022.9mb 43f 37f
4:04 3.5ft 4s 22 27 mph 1023.2mb 43f 37f
3:04 2.5ft 4s 18 22 mph 1023.7mb 43f 36f
2:04 2.5ft 3s 18 22 mph 1024.1mb 43f 35f
1:04 2ft 3s 16 20 mph 1024.5mb 43f 34f
12:04 2ft 3s 18 20 mph 1025.5mb 43f 34f
11:04 1.6ft 3s 11 16 mph 1026.6mb 43f 32f
10:04 2ft 3s 13 16 mph 1027.1mb 43f 30f
9:04 1.6ft 3s 16 18 mph 1026.6mb 43f 29f
8:04 3.5ft 8s 16 20 mph 1026.9mb 43f 28f
7:04 3ft 8s 13 16 mph 1026.1mb 43f 28f
6:04 3ft 8s 13 16 mph 1025.6mb 43f 27f
5:04 2ft 3s 16 20 mph 1025.4mb 43f 27f
4:04 2.5ft 3s 16 18 mph 1024.8mb 43f 28f
3:04 2.5ft 3s 18 22 mph 1024mb 43f 27f
2:04 3.5ft 3s 18 22 mph 1023.7mb 43f 27f
1:04 3.5ft 6s 18 20 mph 1022.9mb 43f 26f
12:04 3.5ft 8s 16 20 mph 1022.4mb 43f 26f
Sex 02/05 11:04 2.5ft 3s 20 27 mph 1021.6mb 43f 27f
10:04 4ft 8s 18 22 mph 1020.5mb 43f 27f
9:04 3ft 3s 18 22 mph 1019.3mb 43f 27f
8:04 4ft 8s 16 20 mph 1018.6mb 43f 28f
7:04 4.5ft 5s 16 20 mph 1017.3mb 43f 29f
6:04 5ft 5s 20 25 mph 1016mb 42f 29f
5:04 5ft 5s 20 25 mph 1015.6mb 42f 30f
4:04 5ft 8s 22 27 mph 1013.5mb 42f 31f
3:04 4.5ft 5s 22 29 mph 1013.4mb 42f 31f
2:04 4.5ft 5s 22 29 mph 1013mb 42f 31f
1:04 5.5ft 5s 25 29 mph - 42f 31f
12:04 6ft 6s 22 27 mph 1015.1mb 42f 31f
11:04 5ft 5s 27 29 mph 1015.8mb 42f 32f
10:04 6ft 6s 25 29 mph 1017.2mb 42f 33f
9:04 5.5ft 5s 20 27 mph 1018.4mb 42f 34f
8:04 6ft 11s 25 29 mph 1017.1mb 42f 34f
7:04 7ft 11s 20 25 mph 1017.5mb 42f 35f
6:04  -   -  20 25 mph 1017.2mb 42f 36f
5:04 6ft 8s 20 25 mph 1017.2mb 42f 37f
4:04 2.5ft 3s 18 22 mph 1016.8mb 42f 39f
3:04 4.5ft 8s 16 18 mph 1017.4mb 42f 42f
2:04 4.5ft 11s 13 16 mph 1017.2mb 42f 42f
1:04 3.5ft 8s 7 9 mph 1017.7mb 42f 42f
12:04 3.5ft 8s 7
mph
1017.5mb 42f 42f
Qui 02/04 11:04 3.5ft 8s 9
mph
1016.7mb 42f 42f
10:04 3.5ft 8s 7 11 mph 1017.3mb 42f 43f
9:04 4ft 8s 7 9 mph 1017.3mb 42f 43f
8:04 3.5ft 8s 7
mph
1017.7mb 42f 43f
7:04 3.5ft 8s 7 9 mph 1016.8mb 42f 44f
6:04 4.5ft 8s 11 13 mph 1016.5mb 42f 45f
5:04 4.5ft 8s 9 11 mph 1015.3mb 42f 45f
4:04 5ft 8s 13
mph
1014.7mb 42f 47f
3:04 5ft 8s 9 11 mph 1013.7mb 42f 47f
2:04 5ft 8s 9 11 mph 1012.6mb 42f 47f
1:04 5ft 8s 4 7 mph 1012.5mb 42f 44f
12:04 5ft 8s 7 9 mph 1013mb 42f 45f
11:04 6ft 8s 4 7 mph 1012.9mb 42f 44f
10:04 6ft 8s 9 11 mph 1012.7mb 42f 47f
9:04 6ft 8s 20 25 mph 1011.9mb 42f 47f
8:04 7ft 8s 13 16 mph 1010.3mb 42f 46f
7:04 6ft 8s 13 16 mph 1009.5mb 42f 47f